Santa Leopoldina, Brazil
Current Conditions -  °F | °C
As of 1:00 AM on Wednesday 26 Nov 2014 (Local Time) from SBVT Reporting Station
Few Clouds Few Clouds  
Wind Chill: 75°   Ceiling: Unl
Heat Index: 75°   Visibility: 6mi
Dew Point: 68°   Wind: 9mph
Humidity: 78%   Direction: 10°N
Pressure: 29.91"   Gusts: NA
Location:  20.1°S, 40.53°W
Report Text: SBVT 260300Z 01008KT 9999 FEW030 24/20 Q1013
Loading
Personal Weather Stations






























Interactive Weather Map New forecast layout! Learn more

10-Day Weather Forecast

Advertisements
Track Severe Weather on mobile